CPX971 Details

Departure: Miami International Airport (KMIA)
Arrival: Schiphol International Airport (EHAM) at N/A
Route: PADUS2 PADUS BR70V ZFP BR71V WLKER NUCAR A699 SUMRS M204 LUNKR 3700N/06000W 4200N/05000W 4400N/04000W 4500N/03500W 4500N/03000W 4500N/02500W 4600N/02000W 4600N/01500W 4700N/01000W UMLER UN734 UMOXA UN531 MADEK UT7 MABUG P86 KOXOD N19 SAM L620 MID UM185 KOBBI M197 REDFA REDFA1A
Notes: SEASONAL FLIGHT


Current Weather Information
KMIA 230753Z 02003KT 10SM FEW009 FEW015 26/23 A2996 RMK AO2 SLP145 T02610228
EHAM 230755Z 08004KT CAVOK 10/09 Q1019 NOSIG